Flight Track Log - Related Links

Times and Time Zones

All times are in EST time to prevent confusion due to time zone crossing. See the N2574R flight status page for this flight to view local times or setup timezone preferences in your user account.

Time Position Orientation Groundspeed Altitude Reporting Facility
EST Latitude Longitude Course Direction KTS MPH feet Rate Location/Type
Sun 01:52:02 PM 24.8708 -80.7683 58° Northeast 110 127 2,700  Level Miami Center
Sun 01:53:02 PM 24.8864 -80.7414 58° Northeast 110 127 2,700  Level Miami Center
Sun 01:54:02 PM 24.9017 -80.7097 62° Northeast 105 121 2,700  Level Miami Center
Sun 01:55:02 PM 24.9233 -80.6853 46° Northeast 105 121 2,700 57 Level Miami Center
Sun 01:55:48 PM 24.9361 -80.6697 48° Northeast 109 125 2,800  Climbing Miami Center
Sun 01:56:02 PM 24.9428 -80.6606 51° Northeast 105 121 2,700  Descending Miami Center
Sun 01:57:00 PM 24.9578 -80.6383 53° Northeast 109 125 2,800  Climbing Miami Center
Sun 01:57:02 PM 24.9622 -80.6361 24° Northeast 105 121 2,700  Descending Miami Center
Sun 01:58:01 PM 24.9794 -80.6114 52° Northeast 111 128 2,800  Climbing Miami Center
Sun 01:58:02 PM 24.9817 -80.6092 42° Northeast 105 121 2,700 -98 Descending Miami Center
Sun 01:59:02 PM 25.0011 -80.5844 49° Northeast 110 127 2,700 91 Level Miami Center
Sun 01:59:08 PM 25.0011 -80.5822 90° East 111 128 2,800  Climbing Miami Center
Sun 02:00:02 PM 25.0206 -80.5575 49° Northeast 105 121 2,700  Descending Miami Center
Sun 02:00:08 PM 25.0206 -80.5575 49° Northeast 110 127 2,800 100 Climbing Miami Center
Sun 02:01:02 PM 25.0419 -80.5308 48° Northeast 110 127 2,800  Level Miami Center
Sun 02:01:15 PM 25.0442 -80.5286 42° Northeast 111 128 2,800 -100 Level Miami Center
Sun 02:02:02 PM 25.0675 -80.5108 35° Northeast 105 121 2,700  Descending Miami Center
Sun 02:02:16 PM 25.0697 -80.5086 42° Northeast 111 128 2,800  Climbing Miami Center
Sun 02:03:02 PM 25.0892 -80.4886 43° Northeast 105 121 2,700 100 Descending Miami Center
Sun 02:03:16 PM 25.0953 -80.4864 18° North 110 127 2,900 100 Climbing Miami Center
Sun 02:04:02 PM 25.1167 -80.4711 33° Northeast 105 121 2,800  Descending Miami Center
Sun 02:04:17 PM 25.1189 -80.4689 42° Northeast 109 125 2,900 -100 Climbing Miami Center
Sun 02:05:02 PM 25.1422 -80.4511 35° Northeast 105 121 2,700 -111 Descending Miami Center
Sun 02:05:11 PM 25.1422 -80.4533 270° West 113 130 2,800  Climbing Miami Center
Sun 02:06:12 PM 25.1697 -80.4314 36° Northeast 111 128 2,700  Descending Miami Center
Sun 02:07:06 PM 25.1911 -80.4136 37° Northeast 110 127 2,800 52 Climbing Miami Center
Sun 02:08:07 PM 25.2186 -80.3961 30° Northeast 110 127 2,800  Level Miami Center
Sun 02:09:08 PM 25.2422 -80.3783 34° Northeast 109 125 2,800  Level Miami Center
Sun 02:10:08 PM 25.2717 -80.3631 25° Northeast 111 128 2,800  Level Miami Center
Sun 02:11:09 PM 25.2992 -80.3478 27° Northeast 111 128 2,800 -70 Level Miami Center
Sun 02:11:34 PM 25.3119 -80.3389 32° Northeast 111 128 2,700 -61 Descending Miami Center
Sun 02:12:47 PM 25.3478 -80.3261 18° North 109 125 2,700  Level Miami Center
Sun 02:13:49 PM 25.3753 -80.3131 23° Northeast 107 123 2,700  Level Miami Center
Sun 02:14:51 PM 25.4050 -80.2978 25° Northeast 110 127 2,700 -47 Level Miami Center
Sun 02:15:58 PM 25.4344 -80.2850 21° North 111 128 2,600 -47 Descending Miami Center
Sun 02:16:59 PM 25.4661 -80.2719 20° North 113 130 2,600 -52 Level Miami Center
Sun 02:17:54 PM 25.4936 -80.2589 23° Northeast 112 129 2,500 -103 Descending Miami Center
Sun 02:18:56 PM 25.5231 -80.2461 21° North 117 135 2,400 -146 Descending Miami Center
Sun 02:19:57 PM 25.5547 -80.2331 20° North 119 137 2,200 -244 Descending Miami Center
Sun 02:20:59 PM 25.5883 -80.2294 North 120 138 1,900 -326 Descending Miami Center
Sun 02:22:06 PM 25.6261 -80.2211 11° North 119 137 1,500 -295 Descending Miami Center
Sun 02:23:01 PM 25.6556 -80.2128 14° North 118 136 1,300 -154 Descending Miami Center
Sun 02:24:03 PM 25.6828 -80.2019 20° North 112 129 1,200 -186 Descending Miami Center
Sun 02:25:10 PM 25.7167 -80.1844 25° Northeast 111 128 900 -141 Descending Miami Center
Sun 02:26:11 PM 25.7439 -80.1761 15° North 104 120 900 47 Level Miami Center
Sun 02:27:18 PM 25.7756 -80.1678 13° North 108 124 1,000 46 Climbing Miami Center
Sun 02:28:21 PM 25.8050 -80.1547 22° Northeast 105 121 1,000  Level Miami Center
Sun 02:29:16 PM 25.8344 -80.1533 North 118 136 1,000  Level Miami Center
Sun 02:30:17 PM 25.8678 -80.1494 North 118 136 1,000  Level Miami Center
Sun 02:31:24 PM 25.8975 -80.1342 25° Northeast 109 125 1,000 -49 Level Miami Center
Sun 02:32:20 PM 25.9228 -80.1186 29° Northeast 112 129 900 -49 Descending Miami Center
Sun 02:33:27 PM 25.9606 -80.1128 North 115 132 900 -94 Level Miami Center
Sun 02:34:28 PM 25.9919 -80.1114 North 122 140 700 -154 Descending Miami Center
Sun 02:35:24 PM 26.0214 -80.1075 North 123 142 600 -51 Descending Miami Center
Sun 02:36:25 PM 26.0589 -80.1017 North 112 129 600 -49 Level Miami Center
Sun 02:37:27 PM 26.0906 -80.0978 North 117 135 500  Descending Miami Center
Sun 02:38:28 PM 26.1197 -80.0939 North 110 127 600 98 Climbing Miami Center
Sun 02:39:29 PM 26.1511 -80.0925 North 107 123 700 98 Climbing Miami Center
Sun 02:40:31 PM 26.1825 -80.0886 North 113 130 800  Climbing Miami Center
Sun 02:41:32 PM 26.2142 -80.0803 13° North 136 157 700 -52 Descending Miami Center
Sun 02:42:27 PM 26.2456 -80.0789 North 115 132 700  Level Miami Center
Sun 02:43:29 PM 26.2789 -80.0706 13° North 116 133 700 49 Level Miami Center
Sun 02:44:30 PM 26.2808 -80.0867 278° West 99 114 800 -49 Climbing Miami Center
Sun 02:45:32 PM 26.2575 -80.0931 194° South 82 94 600 -194 Descending Miami Center
Sun 02:47:00 PM 26.3110 -80.0965 357° North  Level FlightAware Approximate
Sun 02:54:00 PM 26.3667 -80.1000 24° Northeast  Level FlightAware Approximate
Sun 02:55:00 PM 26.3785 -80.1077 24° Northeast  Level Estimated
Sun 02:56:00 PM 26.3785 -80.1077 24° Northeast  Level Estimated
Sun 02:57:00 PM 26.3785 -80.1077 24° Northeast  Level Estimated
Sun 02:58:00 PM 26.3785 -80.1077 24° Northeast  Level Estimated

Login

Don't have an account? Register now (free) for customized features, flight alerts, and more!